Metar Cercanos

 

LEPA - Palma De Mallorc, Spain
Distance from station: ONO 38km
Actualización: 18/11/2018 12:00
Few Clouds
Few Clouds
 Viento del E
Viento: E 11 km/h
Temperatura: 16°C
Rocío: 13°C
Humedad: 83%
Barómetro: 1010 hPa
Clouds: Few Clouds
Visibility: 10 km
Cloud details: Few Clouds 671 m
2018/11/18 11:00 LEPA 181100Z 08006KT 060V120 9999 FEW022 16/13 Q1010 NOSIG
LEMH - Mahon/Menorca Is, Spain
Distance from station: ENE 105km
Actualización: 18/11/2018 12:00
Parcialmente nuboso
Parcialmente nuboso
 Viento del ESE
Viento: ESE 20 km/h
Temperatura: 15°C
Rocío: 11°C
Humedad: 77%
Barómetro: 1011 hPa
Clouds: Parcialmente nuboso
Visibility: 10 km
Cloud details: Few Clouds 610 m
Parcialmente nuboso 914 m
2018/11/18 11:00 LEMH 181100Z 12011KT 090V170 9999 FEW020 SCT030 15/11 Q1011
 
LEIB - Ibiza/Es Codola, Spain
Distance from station: OSO 165km
Actualización: 18/11/2018 12:00
Parcialmente nuboso
Parcialmente nuboso
 Viento del E
Viento: E 19 km/h
Temperatura: 17°C
Rocío: 12°C
Humedad: 73%
Barómetro: 1009 hPa
Clouds: Parcialmente nuboso
Visibility: 10 km
Cloud details: Few Clouds 732 m
Parcialmente nuboso 823 m
2018/11/18 11:00 LEIB 181100Z 08010KT 050V110 9999 FEW024 SCT027 17/12 Q1009 NOSIG
LEBL - Barcelona Airpor, Spain
Distance from station: NNO 225km
Actualización: 18/11/2018 12:00
Lluvia débil, Muy nuboso
Lluvia débil, Muy nuboso
 Viento del ENE
Viento: ENE 26 km/h
Temperatura: 13°C
Rocío: 10°C
Humedad: 82%
Barómetro: 1013 hPa
Resumen: Lluvia débil
Clouds: Muy nuboso
Visibility: 9 km
Cloud details: Few Clouds 549 m
Parcialmente nuboso 853 m
Muy nuboso 1463 m
2018/11/18 11:00 LEBL 181100Z 06014KT 9000 -RA FEW018 SCT028 BKN048 13/10 Q1013 TEMPO 4000 SHRA FEW018TCU
 
LEVC - Valencia (civ/Mi, Spain
Distance from station: NO 188km
Actualización: 18/11/2018 12:00
Lluvia débil, Muy nuboso
Lluvia débil, Muy nuboso
 Viento del ENE
Viento: ENE 9 km/h
Temperatura: 15°C
Rocío: 14°C
Humedad: 94%
Barómetro: 1009 hPa
Resumen: Lluvia débil
Clouds: Muy nuboso
Visibility: 10 km
Cloud details: Few Clouds 305 m
Muy nuboso 1067 m
2018/11/18 11:00 LEVC 181100Z 07005KT 030V130 9999 -RA FEW010 BKN035 15/14 Q1009 NOSIG
LEGE - Gerona/Costa Bra, Spain
Distance from station: N 276km
Actualización: 18/11/2018 12:00
Lluvia, Muy nuboso
Lluvia, Muy nuboso
 Viento del NNE
Viento: NNE 7 km/h
Temperatura: 10°C
Sensación frio: 9°C
Rocío: 10°C
Humedad: 100%
Barómetro: 1014 hPa
Resumen: Lluvia
Clouds: Muy nuboso
Visibility: 4 km
Cloud details: Parcialmente nuboso 518 m
Muy nuboso 914 m
2018/11/18 11:00 LEGE 181100Z 03004KT 330V100 4000 RA SCT017 BKN030 10/10 Q1014
 
LEAL - Alicante/El Alte, Spain
Distance from station: OSO 344km
Actualización: 18/11/2018 12:00
Muy nuboso
Muy nuboso
 Viento del ENE
Viento: ENE 30 km/h
Temperatura: 18°C
Rocío: 13°C
Humedad: 73%
Barómetro: 1007 hPa
Clouds: Muy nuboso
Visibility: 10 km
Cloud details: Parcialmente nuboso 610 m
Muy nuboso 914 m
2018/11/18 11:00 LEAL 181100Z 07016KT 9999 SCT020 BKN030 18/13 Q1007 NOSIG
LEAM - Almeria Airport, Spain
Distance from station: SSO 56km
Actualización: 18/11/2018 12:00
Few Clouds
Few Clouds
 Viento del NE
Viento: NE 31 km/h
Temperatura: 19°C
Rocío: 10°C
Humedad: 56%
Barómetro: 1005 hPa
Clouds: Few Clouds
Visibility: 10 km
Cloud details: Few Clouds 1067 m
2018/11/18 11:00 LEAM 181100Z 05017KT 9999 FEW035 19/10 Q1005
 
LEZG - Zaragoza (mil/Ci, Spain
Distance from station: NO 431km
Actualización: 18/11/2018 12:00
Light drizzle, Cubierto
Light drizzle, Cubierto
 Viento del ESE
Viento: ESE 19 km/h
Temperatura: 10°C
Sensación frio: 7°C
Rocío: 9°C
Humedad: 94%
Barómetro: 1010 hPa
Resumen: Light Drizzle
Clouds: Cubierto
Visibility: 10 km
Cloud details: Parcialmente nuboso 244 m
Cubierto 457 m
2018/11/18 11:00 LEZG 181100Z 11010KT 080V140 9999 -DZ SCT008 OVC015 10/09 Q1010
LEMD - Madrid/Barajas, Spain
Distance from station: ONO 234km
Actualización: 18/11/2018 12:00
Muy nuboso
Muy nuboso
 Viento del varies
Viento: varies 4 km/h
Temperatura: 12°C
Rocío: 9°C
Humedad: 82%
Barómetro: 1007 hPa
Clouds: Muy nuboso
Visibility: 10 km
Cloud details: Muy nuboso 823 m
2018/11/18 11:00 LEMD 181100Z VRB02KT 9999 BKN027 12/09 Q1007 BECMG 14010KT
 
LEGR - Granada Airport, Spain
Distance from station: OSO 62km
Actualización: 18/11/2018 12:00
Few Clouds
Few Clouds
 Viento del NE
Viento: NE 11 km/h
Temperatura: 17°C
Rocío: 9°C
Humedad: 59%
Barómetro: 1003 hPa
Clouds: Few Clouds
Visibility: 10 km
Cloud details: Few Clouds 2438 m
2018/11/18 11:00 LEGR 181100Z 05006KT 340V100 9999 FEW080 17/09 Q1003
LEMG - Malaga (civ/Mil), Spain
Distance from station: OSO 227km
Actualización: 18/11/2018 12:00
Lluvia, Muy nuboso
Lluvia, Muy nuboso
 Viento del ESE
Viento: ESE 37 km/h
Temperatura: 16°C
Rocío: 14°C
Humedad: 88%
Barómetro: 1004 hPa
Resumen: Lluvia
Clouds: Muy nuboso
Visibility: 2 km
Cloud details: Parcialmente nuboso 305 m
Muy nuboso 1067 m
2018/11/18 11:00 LEMG 181100Z 12020KT 1500 RA SCT010CB BKN035 16/14 Q1004 TEMPO TSRA
 
LEZL - Sevilla (civ/Mil, Spain
Distance from station: S 318km
Actualización: 18/11/2018 12:00
Lluvia débil, Cubierto
Lluvia débil, Cubierto
 Viento del varies
Viento: varies 4 km/h
Temperatura: 16°C
Rocío: 14°C
Humedad: 88%
Barómetro: 1002 hPa
Resumen: Lluvia débil
Clouds: Cubierto
Visibility: 9 km
Cloud details: Muy nuboso 274 m
Cubierto 610 m
2018/11/18 11:00 LEZL 181100Z VRB02KT 9000 -RA BKN009 OVC020 16/14 Q1002 NOSIG
LEVT - Vitoria, Spain
Distance from station: NO 226km
Actualización: 18/11/2018 12:00
Muy nuboso
Muy nuboso
 Viento del ESE
Viento: ESE 15 km/h
Temperatura: 10°C
Sensación frio: 8°C
Rocío: 8°C
Humedad: 88%
Barómetro: 1008 hPa
Clouds: Muy nuboso
Visibility: 10 km
Cloud details: Few Clouds 366 m
Muy nuboso 518 m
2018/11/18 11:00 LEVT 181100Z 11008KT 070V150 9999 FEW012 BKN017 10/08 Q1008
 
LEBB - Bilbao/Sondica, Spain
Distance from station: NNO 235km
Actualización: 18/11/2018 12:00
Muy nuboso
Muy nuboso
 Viento del SE
Viento: SE 17 km/h
Temperatura: 14°C
Rocío: 11°C
Humedad: 82%
Barómetro: 1007 hPa
Clouds: Muy nuboso
Visibility: 10 km
Cloud details: Few Clouds 1036 m
Muy nuboso 1524 m
2018/11/18 11:00 LEBB 181100Z 14009KT 080V170 9999 FEW034 BKN050 14/11 Q1007 RERA TEMPO RA
LESO - San Sebastian/Fu, Spain
Distance from station: N 231km
Actualización: 18/11/2018 12:00
Parcialmente nuboso
Parcialmente nuboso
 Viento del NE
Viento: NE 2 km/h
Temperatura: 13°C
Rocío: 11°C
Humedad: 88%
Barómetro: 1008 hPa
Clouds: Parcialmente nuboso
Visibility: 10 km
Cloud details: Parcialmente nuboso 1981 m
2018/11/18 11:00 LESO 181100Z 04001KT 9999 SCT065 13/11 Q1008
 
LEVD - Valladolid(Mil/C, Spain
Distance from station: ONO 239km
Actualización: 18/11/2018 12:00
Despejado
Despejado
 Viento del ENE
Viento: ENE 15 km/h
Temperatura: 8°C
Sensación frio: 5°C
Rocío: 6°C
Humedad: 87%
Barómetro: 1006 hPa
Resumen: Despejado
Visibility: greater than 10 km
2018/11/18 11:00 LEVD 181100Z 07008KT CAVOK 08/06 Q1006
LESA - Salamanca (civ/M, Spain
Distance from station: ONO 349km
Actualización: 18/11/2018 12:00
Few Clouds
Few Clouds
 Viento del ESE
Viento: ESE 9 km/h
Temperatura: 12°C
Rocío: 8°C
Humedad: 77%
Barómetro: 1004 hPa
Clouds: Few Clouds
Visibility: 10 km
Cloud details: Few Clouds 1219 m
2018/11/18 11:00 LESA 181100Z 11005KT 080V140 9999 FEW040 12/08 Q1004
 
LEXJ - Santander/Paraya, Spain
Distance from station: NNO 247km
Actualización: 18/11/2018 12:00
Few Clouds
Few Clouds
 Viento del NE
Viento: NE 2 km/h
Temperatura: 15°C
Rocío: 11°C
Humedad: 77%
Barómetro: 1006 hPa
Clouds: Few Clouds
Visibility: 10 km
Cloud details: Few Clouds 2438 m
2018/11/18 11:00 LEXJ 181100Z 05001KT 9999 FEW080 15/11 Q1006
LEAS - Asturias/Aviles, Spain
Distance from station: NO 214km
Actualización: 18/11/2018 12:03
Muy nuboso
Muy nuboso
 Viento del E
Viento: E 7 km/h
Temperatura: 13°C
Rocío: 12°C
Humedad: 94%
Barómetro: 1006 hPa
Clouds: Muy nuboso
Visibility: 8 km
Cloud details: Few Clouds 274 m
Muy nuboso 396 m
Muy nuboso 732 m
2018/11/18 11:03 LEAS 181103Z 09004KT 060V120 8000 FEW009 BKN013 BKN024 13/12 Q1006 NOSIG
 
LECO - La Coruna/Alvedr, Spain
Distance from station: ONO 222km
Actualización: 18/11/2018 12:00
Despejado
Despejado
 Viento del NNE
Viento: NNE 6 km/h
Temperatura: 15°C
Rocío: 9°C
Humedad: 68%
Barómetro: 1004 hPa
Resumen: Despejado
Visibility: greater than 10 km
2018/11/18 11:00 LECO 181100Z 02003KT 330V050 CAVOK 15/09 Q1004 NOSIG
LEVX - Vigo/Peinador, Spain
Distance from station: O 214km
Actualización: 18/11/2018 12:00
Despejado
Despejado
 Viento del E
Viento: E 6 km/h
Temperatura: 17°C
Rocío: 9°C
Humedad: 59%
Barómetro: 1003 hPa
Resumen: Despejado
Visibility: greater than 10 km
2018/11/18 11:00 LEVX 181100Z 08003KT 360V140 CAVOK 17/09 Q1003 NOSIG